CST,Max TemperatureF,Mean TemperatureF,Min TemperatureF,Max Dew PointF,MeanDew PointF,Min DewpointF,Max Humidity, Mean Humidity, Min Humidity, Max Sea Level PressureIn, Mean Sea Level PressureIn, Min Sea Level PressureIn, Max VisibilityMiles, Mean VisibilityMiles, Min VisibilityMiles, Max Wind SpeedMPH, Mean Wind SpeedMPH, Max Gust SpeedMPH,PrecipitationIn, CloudCover, Events, WindDirDegrees
2013-12-1,58,52,45,49,46,42,92,77,62,30.15,30.02,29.89,10,10,7,7,3,8,0.00,7,,53
2013-12-2,66,56,45,51,48,45,93,77,60,29.89,29.77,29.68,10,6,1,8,2,10,0.00,4,,274
2013-12-3,63,52,41,54,49,39,100,89,78,29.70,29.63,29.54,7,2,0,16,8,21,0.00,6,Fog,71
2013-12-4,67,55,42,54,47,34,100,76,52,29.94,29.70,29.59,10,5,0,20,10,23,0.00,4,Fog,33
2013-12-5,43,37,30,32,27,24,92,78,64,30.23,30.16,29.96,10,6,2,17,10,23,1.05,8,Rain,336
2013-12-6,31,27,23,27,22,16,92,80,68,30.56,30.31,30.18,10,5,0,17,9,21,0.56,8,Fog-Rain-Snow,356
2013-12-7,27,21,15,22,16,10,81,72,62,30.64,30.52,30.33,10,10,9,15,6,18,T,5,,54
2013-12-8,32,29,25,30,26,19,100,87,74,30.29,30.17,30.06,10,4,1,12,5,15,T,8,Snow,79
2013-12-9,33,30,27,29,24,19,92,81,69,30.36,30.28,30.22,10,10,5,15,6,17,0.00,6,,332
2013-12-10,32,26,19,25,21,15,92,81,69,30.53,30.43,30.36,10,8,3,16,5,20,0.00,2,,241
2013-12-11,36,31,25,31,27,22,100,82,63,30.62,30.48,30.35,10,3,0,14,5,16,0.00,4,Fog,55
2013-12-12,41,31,21,29,24,18,96,80,64,30.66,30.55,30.35,10,7,0,9,3,10,0.00,2,Fog,70
2013-12-13,38,34,30,36,33,27,92,85,78,30.31,30.03,29.89,10,8,3,13,7,16,0.32,7,Rain,76
2013-12-14,42,35,28,38,33,25,92,81,70,30.28,30.05,29.86,10,6,2,18,8,23,0.02,8,,330
2013-12-15,54,39,24,33,28,23,92,67,41,30.34,30.25,30.18,10,7,3,9,4,12,0.00,0,,236
2013-12-16,65,47,29,39,32,27,92,63,34,30.22,30.16,30.10,10,9,6,9,2,12,0.00,0,,64
2013-12-17,68,49,30,38,31,27,100,62,24,30.31,30.25,30.17,10,10,4,13,3,15,0.00,0,,301
2013-12-18,68,50,32,39,34,28,82,57,32,30.29,30.15,30.01,10,10,10,17,5,23,0.00,0,,85
2013-12-19,67,55,42,58,50,38,78,67,55,30.00,29.87,29.75,10,10,1,18,8,28,0.00,6,,172
2013-12-20,69,53,36,60,43,34,92,80,68,29.90,29.82,29.74,10,6,1,26,8,32,0.58,8,Rain-Thunderstorm,246
2013-12-21,44,40,36,43,37,34,100,94,85,29.78,29.69,29.51,10,6,2,21,9,25,0.91,8,Rain-Thunderstorm,247
2013-12-22,39,36,33,35,28,23,92,78,64,30.40,30.10,29.80,10,10,10,20,10,24,0.00,8,,297
2013-12-23,35,32,28,23,22,21,75,67,59,30.60,30.53,30.40,10,10,8,13,6,15,0.00,7,,334
2013-12-24,46,34,21,27,23,17,92,69,45,30.59,30.46,30.33,10,9,5,14,6,18,0.00,0,,85
2013-12-25,49,38,27,33,28,24,92,73,53,30.43,30.37,30.33,10,10,6,13,6,15,0.00,1,,234
2013-12-26,50,39,28,34,30,27,100,75,50,30.48,30.41,30.36,10,4,0,9,2,9,0.00,2,Fog,287
2013-12-27,58,42,25,34,29,22,92,64,36,30.48,30.41,30.35,10,10,7,6,1,7,0.00,0,,69
2013-12-28,56,42,28,36,32,25,92,68,43,30.33,30.15,29.99,10,10,10,9,4,10,0.00,1,,54
2013-12-29,48,39,29,36,27,18,85,72,59,30.29,30.15,29.98,10,10,10,18,7,23,0.00,7,,332
2013-12-30,34,29,23,23,21,18,81,71,61,30.43,30.33,30.26,10,10,9,10,4,13,0.00,6,,276
2013-12-31,55,38,20,29,23,15,92,64,35,30.45,30.35,30.23,10,9,5,9,2,14,0.00,0,,64